Startpagina
METAR-TAF:

METAR-TAF

Vliegvelden :

Toussus-le-Noble, Frankrijk

breedte: 48-46N, lengte: 002-06E, hoogte: 164 m

Actueel weer

Dit bericht is 32 minuten geleden gemaakt, om 13:30 UTC
Wind 8 kt uit het oosten, variërend tussen het noordoosten en het zuidoosten
Temperatuur 24°C
Vochtigheid 25%
Druk 1022 hPa
Zicht 10 km of meer
geen wolken onder 1500 m en geen cumulonimbus

METAR: LFPN 101330Z AUTO 09008KT 040V130 CAVOK 24/03 Q1022

Tijdstip: 16:02 (14:02 UTC)


TAF: ontbreekt

Waarnemingen en weersverwachtingen van meer dan 4000 vliegvelden (METAR en TAF).

De beschikbare stations zijn de gele en rode punten op de kaart.

Ga met uw muis naar het station om de naam te zien.

Klik dan om waarnemingen en weersverwachtingen te zien.

kaart wijzigen: klik op de groene knoppen met een zwart kruis om in te zoomen, op de groene knop met een streepje om uit te zoomen of op de groene pijlen voor aangrenzende kaarten.


METAR-TAF: